Time;durP1;ratioP1;P1;durP2;ratioP2;P2;SDS_P1;SDS_P2;PMS_P1;PMS_P2;Temp;Humidity;BMP_temperature;BMP_pressure;BME280_temperature;BME280_humidity;BME280_pressure;Samples;Min_cycle;Max_cycle;Signal;HPM_P1;HPM_P2
2023/01/29 00:00:32;;;;;;;4.30;3.90;;;;;;;0.50;100.00;100370.13;5112638;28;20195;-79
2023/01/29 00:03:00;;;;;;;6.60;4.30;;;;;;;0.36;100.00;100366.66;5112767;28;20337;-78
2023/01/29 00:05:28;;;;;;;6.03;4.60;;;;;;;0.39;100.00;100375.38;5111258;28;20227;-79
2023/01/29 00:07:58;;;;;;;5.57;4.40;;;;;;;0.47;100.00;100381.41;5108477;28;20657;-79
2023/01/29 00:10:26;;;;;;;5.43;4.37;;;;;;;0.47;100.00;100376.19;5113331;28;20199;-78
2023/01/29 00:12:59;;;;;;;5.10;3.60;;;;;;;0.42;100.00;100367.53;5113602;28;20244;-79
2023/01/29 00:15:28;;;;;;;7.13;4.33;;;;;;;0.32;100.00;100357.16;5109040;28;20300;-79
2023/01/29 00:17:56;;;;;;;5.10;4.57;;;;;;;0.37;100.00;100360.59;5112824;28;20183;-79
2023/01/29 00:20:24;;;;;;;6.60;4.50;;;;;;;0.28;100.00;100358.88;5106584;28;20198;-79
2023/01/29 00:22:52;;;;;;;5.07;4.57;;;;;;;0.25;100.00;100354.53;5106020;28;20199;-79
2023/01/29 00:25:21;;;;;;;6.63;5.00;;;;;;;0.31;100.00;100351.06;5110249;28;20191;-79
2023/01/29 00:27:50;;;;;;;5.90;5.30;;;;;;;0.30;100.00;100353.69;5112076;28;20191;-79
2023/01/29 00:30:21;;;;;;;7.60;5.30;;;;;;;0.19;100.00;100345.88;5113480;28;20635;-78
2023/01/29 00:32:50;;;;;;;5.87;4.97;;;;;;;0.20;100.00;100347.63;5071848;28;20204;-79
2023/01/29 00:35:18;;;;;;;6.70;4.93;;;;;;;0.24;100.00;100341.53;5110883;28;20256;-79
2023/01/29 00:37:47;;;;;;;4.90;4.43;;;;;;;0.15;100.00;100337.22;5107209;28;20191;-79
2023/01/29 00:40:15;;;;;;;4.87;4.30;;;;;;;0.14;100.00;100340.69;5113078;28;20203;-79
2023/01/29 00:45:35;;;;;;;4.73;4.20;;;;;;;0.03;100.00;100334.66;5113148;28;20195;-78
2023/01/29 00:48:05;;;;;;;5.97;4.40;;;;;;;-0.12;100.00;100324.25;5110753;28;20195;-79
2023/01/29 00:50:34;;;;;;;5.87;4.77;;;;;;;-0.08;100.00;100331.22;5050350;28;20227;-79
2023/01/29 00:53:02;;;;;;;6.73;4.70;;;;;;;-0.05;100.00;100331.19;5044804;28;20694;-79
2023/01/29 00:55:30;;;;;;;6.83;5.37;;;;;;;0.02;100.00;100326.84;5043225;28;20684;-79
2023/01/29 00:57:59;;;;;;;6.30;5.40;;;;;;;-0.32;100.00;100324.28;5040219;28;20194;-79
2023/01/29 01:00:27;;;;;;;9.00;5.20;;;;;;;-0.54;100.00;100323.44;4997710;28;20189;-79
2023/01/29 01:03:05;;;;;;;7.83;5.33;;;;;;;-0.50;100.00;100319.09;5039999;28;20205;-79
2023/01/29 01:05:34;;;;;;;7.70;5.47;;;;;;;-0.43;100.00;100321.69;5047612;28;20196;-79
2023/01/29 01:08:02;;;;;;;7.47;6.07;;;;;;;-0.40;100.00;100316.47;5050200;28;20196;-79
2023/01/29 01:10:32;;;;;;;6.93;5.57;;;;;;;-0.43;100.00;100310.41;5046313;28;20205;-79
2023/01/29 01:13:03;;;;;;;7.47;5.97;;;;;;;-0.49;100.00;100300.88;4969092;28;20212;-79
2023/01/29 01:15:34;;;;;;;7.33;5.67;;;;;;;-0.41;100.00;100296.53;5015988;28;20474;-79
2023/01/29 01:18:07;;;;;;;8.13;5.20;;;;;;;-0.20;100.00;100293.00;5040248;28;20217;-79
2023/01/29 01:20:36;;;;;;;7.70;5.50;;;;;;;-0.18;100.00;100293.91;5048999;28;20267;-79
2023/01/29 01:23:05;;;;;;;5.40;4.90;;;;;;;-0.31;100.00;100292.19;5050101;28;20204;-78
2023/01/29 01:25:34;;;;;;;6.87;5.10;;;;;;;-0.34;100.00;100290.47;5051793;28;20193;-79
2023/01/29 01:28:02;;;;;;;6.37;5.57;;;;;;;-0.62;100.00;100291.34;5051179;28;20648;-78
2023/01/29 01:30:31;;;;;;;7.63;5.03;;;;;;;-0.69;100.00;100295.69;5059018;28;20198;-79
2023/01/29 01:33:00;;;;;;;7.23;5.30;;;;;;;-0.46;100.00;100298.28;5117990;27;20199;-78
2023/01/29 01:35:30;;;;;;;5.53;4.90;;;;;;;-0.61;100.00;100296.53;5111911;28;20676;-79
2023/01/29 01:37:58;;;;;;;7.37;5.10;;;;;;;-0.67;100.00;100287.91;5114218;28;20206;-79
2023/01/29 01:40:28;;;;;;;6.13;5.10;;;;;;;-0.80;100.00;100292.22;5112264;28;20194;-80
2023/01/29 01:43:01;;;;;;;7.00;5.20;;;;;;;-1.21;100.00;100292.19;5116819;28;20199;-78
2023/01/29 01:45:33;;;;;;;7.43;5.33;;;;;;;-1.03;100.00;100291.34;5118518;28;20198;-79
2023/01/29 01:48:07;;;;;;;7.93;5.10;;;;;;;-0.96;100.00;100288.75;5113606;28;20217;-79
2023/01/29 01:50:41;;;;;;;7.60;5.30;;;;;;;-1.46;100.00;100297.31;5070914;28;20204;-78
2023/01/29 01:53:13;;;;;;;7.47;5.20;;;;;;;-1.34;100.00;100293.91;5071525;28;20192;-78
2023/01/29 01:55:45;;;;;;;9.60;5.47;;;;;;;-1.27;100.00;100298.22;5062748;28;20270;-79
2023/01/29 01:58:23;;;;;;;8.90;6.13;;;;;;;-1.27;100.00;100303.41;5066663;28;20192;-79
2023/01/29 02:00:52;;;;;;;9.50;5.40;;;;;;;-1.13;100.00;100310.41;5065790;28;20188;-79
2023/01/29 02:11:46;;;;;;;7.70;6.17;;;;;;;-0.86;100.00;100328.63;5073412;28;20580;-79
2023/01/29 02:14:14;;;;;;;7.43;6.07;;;;;;;-0.86;100.00;100333.84;5038903;28;20200;-78
2023/01/29 02:16:43;;;;;;;7.63;6.43;;;;;;;-0.85;100.00;100345.09;5108307;28;20203;-78
2023/01/29 02:19:21;;;;;;;9.20;6.40;;;;;;;-0.84;100.00;100346.84;5108637;28;20199;-79
2023/01/29 02:22:27;;;;;;;9.23;6.97;;;;;;;-0.75;100.00;100341.66;5111971;28;20187;-78
2023/01/29 02:25:36;;;;;;;10.13;7.13;;;;;;;-0.75;100.00;100336.44;5096847;28;20195;-79
2023/01/29 02:28:17;;;;;;;10.63;7.53;;;;;;;-0.73;100.00;100337.31;5033277;28;20201;-78
2023/01/29 02:30:50;;;;;;;9.67;7.70;;;;;;;-0.77;100.00;100338.16;5101009;28;20210;-78
2023/01/29 02:33:31;;;;;;;11.57;7.90;;;;;;;-0.75;100.00;100337.31;5112990;28;20742;-78
2023/01/29 02:36:11;;;;;;;10.67;7.60;;;;;;;-0.80;100.00;100330.38;5106970;28;20214;-78
2023/01/29 02:38:47;;;;;;;10.97;8.27;;;;;;;-0.88;100.00;100327.75;5104596;28;20232;-78
2023/01/29 02:41:26;;;;;;;9.80;7.50;;;;;;;-0.91;100.00;100330.34;5047507;28;20331;-78
2023/01/29 02:44:04;;;;;;;10.57;7.90;;;;;;;-0.89;100.00;100321.69;5043554;28;20201;-78
2023/01/29 02:46:37;;;;;;;12.70;8.03;;;;;;;-0.92;100.00;100326.03;5046867;28;20197;-78
2023/01/29 02:49:15;;;;;;;11.63;8.50;;;;;;;-1.00;100.00;100309.53;5050438;28;20193;-79
2023/01/29 02:51:48;;;;;;;13.07;8.70;;;;;;;-0.94;100.00;100306.97;5051576;28;20211;-78
2023/01/29 02:54:22;;;;;;;19.37;9.40;;;;;;;-0.98;100.00;100313.88;5050729;28;20193;-78
2023/01/29 02:56:55;;;;;;;13.10;9.10;;;;;;;-0.84;100.00;100320.84;5048741;28;20773;-78
2023/01/29 02:59:33;;;;;;;14.77;9.10;;;;;;;-0.88;100.00;100309.53;5076928;28;20191;-78
2023/01/29 03:02:07;;;;;;;13.47;9.40;;;;;;;-0.91;100.00;100314.75;5110978;28;20186;-80
2023/01/29 03:04:44;;;;;;;13.33;9.13;;;;;;;-0.89;100.00;100323.41;5114354;28;20214;-78
2023/01/29 03:07:39;;;;;;;11.80;8.83;;;;;;;-0.98;100.00;100310.41;5111146;28;20187;-77
2023/01/29 03:10:15;;;;;;;14.23;8.77;;;;;;;-1.05;100.00;100316.47;5115623;28;20194;-78
2023/01/29 03:12:50;;;;;;;13.13;8.73;;;;;;;-1.01;100.00;100306.06;5114561;28;20187;-79
2023/01/29 03:15:26;;;;;;;12.53;8.80;;;;;;;-0.99;100.00;100306.94;5108123;28;20211;-79
2023/01/29 03:17:58;;;;;;;12.17;8.67;;;;;;;-1.03;100.00;100309.53;5106298;28;20206;-78
2023/01/29 03:20:31;;;;;;;12.43;9.00;;;;;;;-1.05;100.00;100299.16;5113506;28;20187;-78
2023/01/29 03:23:05;;;;;;;12.83;8.77;;;;;;;-1.11;100.00;100293.06;5112048;28;20531;-78
2023/01/29 03:34:04;;;;;;;14.37;9.17;;;;;;;-0.98;100.00;100295.66;5115596;28;20723;-79
2023/01/29 03:36:46;;;;;;;12.23;8.40;;;;;;;-1.24;100.00;100315.56;5114999;28;20213;-78
2023/01/29 03:39:16;;;;;;;14.03;9.10;;;;;;;-1.28;100.00;100330.28;5091267;28;20187;-79
2023/01/29 03:41:53;;;;;;;11.57;8.00;;;;;;;-1.26;100.00;100320.75;5085241;28;20249;-78
2023/01/29 03:44:30;;;;;;;12.67;8.40;;;;;;;-1.33;100.00;100320.75;5087293;28;20236;-78
2023/01/29 03:47:13;;;;;;;11.70;8.80;;;;;;;-1.37;100.00;100322.44;5089997;28;20245;-78
2023/01/29 03:49:54;;;;;;;11.60;8.20;;;;;;;-1.36;100.00;100308.59;5088843;28;20220;-78
2023/01/29 03:52:29;;;;;;;12.40;8.30;;;;;;;-1.42;100.00;100311.19;5084476;28;20223;-78
2023/01/29 03:55:09;;;;;;;13.00;8.53;;;;;;;-1.39;100.00;100297.34;5087829;28;20302;-78
2023/01/29 03:57:44;;;;;;;11.83;8.60;;;;;;;-1.50;100.00;100289.50;5102964;28;20190;-78
2023/01/29 04:00:21;;;;;;;11.80;8.30;;;;;;;-1.57;100.00;100300.72;5118193;27;20489;-79
2023/01/29 04:02:59;;;;;;;11.03;7.73;;;;;;;-1.52;100.00;100305.09;5113440;28;20256;-78
2023/01/29 04:05:34;;;;;;;11.53;8.20;;;;;;;-1.68;100.00;100315.41;5114732;28;20219;-79
2023/01/29 04:08:11;;;;;;;11.90;8.27;;;;;;;-1.77;100.00;100314.50;5113049;28;20199;-79
2023/01/29 04:10:45;;;;;;;13.30;8.57;;;;;;;-1.70;100.00;100317.16;5118865;27;20240;-79
2023/01/29 04:13:16;;;;;;;12.67;8.93;;;;;;;-1.90;100.00;100323.13;5107796;28;20191;-79
2023/01/29 04:15:49;;;;;;;12.30;8.77;;;;;;;-1.80;100.00;100330.09;5118309;27;20673;-79
2023/01/29 04:18:19;;;;;;;13.60;9.00;;;;;;;-1.75;100.00;100330.09;5112322;28;20599;-78
2023/01/29 04:20:49;;;;;;;11.43;7.97;;;;;;;-1.94;100.00;100341.25;5110576;28;20218;-78
2023/01/29 04:23:24;;;;;;;13.50;8.53;;;;;;;-1.95;100.00;100330.00;5116389;28;20274;-79
2023/01/29 04:26:13;;;;;;;10.97;7.77;;;;;;;-1.91;100.00;100323.97;5115392;28;20219;-79
2023/01/29 04:28:58;;;;;;;10.00;7.57;;;;;;;-1.90;100.00;100340.41;5113620;28;20243;-79
2023/01/29 04:31:34;;;;;;;11.13;7.60;;;;;;;-2.04;100.00;100336.00;5112997;28;20191;-79
2023/01/29 04:34:13;;;;;;;11.40;7.40;;;;;;;-2.11;100.00;100330.78;5113715;28;20268;-79
2023/01/29 04:36:52;;;;;;;11.40;8.20;;;;;;;-2.14;100.00;100336.81;5111506;28;20211;-79
2023/01/29 04:39:26;;;;;;;11.87;7.90;;;;;;;-2.10;100.00;100346.38;5113351;28;20183;-79
2023/01/29 04:42:05;;;;;;;10.87;8.00;;;;;;;-2.06;100.00;100332.53;5112130;28;20203;-79
2023/01/29 04:44:40;;;;;;;10.73;7.77;;;;;;;-2.05;100.00;100323.88;5057740;28;20229;-79
2023/01/29 04:47:18;;;;;;;11.27;8.30;;;;;;;-2.06;100.00;100316.97;5050115;28;20197;-79
2023/01/29 04:49:57;;;;;;;12.10;8.00;;;;;;;-2.10;100.00;100311.75;5050223;28;20201;-79
2023/01/29 04:52:40;;;;;;;10.10;7.27;;;;;;;-2.20;100.00;100310.84;5050100;28;20326;-79
2023/01/29 04:55:13;;;;;;;11.73;8.30;;;;;;;-2.11;100.00;100297.91;5046368;28;20193;-79
2023/01/29 04:57:53;;;;;;;11.10;7.53;;;;;;;-2.06;100.00;100298.78;5047989;28;20209;-78
2023/01/29 05:00:27;;;;;;;12.10;8.03;;;;;;;-2.07;100.00;100291.00;5048546;28;20277;-78
2023/01/29 05:02:57;;;;;;;12.00;7.43;;;;;;;-2.05;100.00;100294.47;5046390;28;20199;-79
2023/01/29 05:05:30;;;;;;;11.00;8.07;;;;;;;-2.06;100.00;100277.16;5049818;28;20247;-78
2023/01/29 05:07:59;;;;;;;12.00;8.30;;;;;;;-2.15;100.00;100284.91;5045169;28;20251;-80
2023/01/29 05:10:33;;;;;;;13.07;8.30;;;;;;;-2.11;100.00;100284.06;5113659;28;20695;-79
2023/01/29 05:13:04;;;;;;;12.03;8.43;;;;;;;-2.02;100.00;100285.00;5080513;28;20195;-79
2023/01/29 05:15:39;;;;;;;11.43;7.60;;;;;;;-1.95;100.00;100293.66;5112939;28;20187;-78
2023/01/29 05:18:09;;;;;;;11.70;8.20;;;;;;;-1.94;100.00;100290.19;5108791;28;20226;-79
2023/01/29 05:20:41;;;;;;;11.37;8.87;;;;;;;-1.89;100.00;100290.22;5044597;28;20241;-79
2023/01/29 05:23:11;;;;;;;11.80;8.07;;;;;;;-1.82;100.00;100290.28;5112463;28;20220;-79
2023/01/29 05:25:40;;;;;;;13.33;9.17;;;;;;;-1.81;100.00;100293.72;5108845;28;20202;-79
2023/01/29 05:28:15;;;;;;;11.60;8.30;;;;;;;-1.72;100.00;100296.38;5112863;28;20198;-79
2023/01/29 05:30:46;;;;;;;12.10;8.37;;;;;;;-1.82;100.00;100304.97;5112542;28;20273;-79
2023/01/29 05:33:16;;;;;;;12.90;8.23;;;;;;;-1.80;100.00;100304.13;5111696;28;20191;-79
2023/01/29 05:35:47;;;;;;;12.90;9.00;;;;;;;-1.97;100.00;100307.50;5112742;28;20187;-78
2023/01/29 05:38:16;;;;;;;14.00;8.47;;;;;;;-1.84;100.00;100297.16;5112867;28;20263;-79
2023/01/29 05:40:45;;;;;;;11.97;8.43;;;;;;;-1.82;100.00;100294.59;5112536;28;20206;-79
2023/01/29 05:43:16;;;;;;;12.33;8.43;;;;;;;-1.84;100.00;100298.88;5112845;28;20194;-78
2023/01/29 05:45:52;;;;;;;11.83;8.40;;;;;;;-1.85;100.00;100299.75;5111449;28;20206;-79
2023/01/29 05:48:21;;;;;;;12.13;8.57;;;;;;;-1.92;100.00;100291.09;5112757;28;20205;-78
2023/01/29 05:50:52;;;;;;;12.40;8.33;;;;;;;-2.14;100.00;100284.03;5107591;28;20198;-78
2023/01/29 05:53:20;;;;;;;13.17;9.00;;;;;;;-2.06;100.00;100277.16;5110066;28;20595;-79
2023/01/29 05:55:49;;;;;;;11.93;8.10;;;;;;;-1.84;100.00;100271.19;5115019;27;20244;-79
2023/01/29 05:58:18;;;;;;;11.87;9.23;;;;;;;-1.70;100.00;100265.22;5109548;28;20215;-78
2023/01/29 06:00:46;;;;;;;16.47;11.50;;;;;;;-1.65;100.00;100260.88;5109232;28;20213;-79
2023/01/29 06:03:15;;;;;;;15.60;11.47;;;;;;;-1.71;100.00;100261.75;5104614;28;20203;-78
2023/01/29 06:05:44;;;;;;;18.20;11.83;;;;;;;-1.66;100.00;100267.81;5112559;28;20199;-78
2023/01/29 06:08:15;;;;;;;15.13;10.40;;;;;;;-1.84;100.00;100257.34;5111876;28;20255;-79
2023/01/29 06:10:45;;;;;;;13.30;8.87;;;;;;;-1.81;100.00;100266.03;5116454;28;20214;-79
2023/01/29 06:13:13;;;;;;;12.00;8.20;;;;;;;-1.84;100.00;100267.72;5109020;28;20203;-78
2023/01/29 06:15:42;;;;;;;11.87;9.10;;;;;;;-1.91;100.00;100273.78;5112582;28;20199;-79
2023/01/29 06:18:10;;;;;;;13.13;9.13;;;;;;;-2.03;100.00;100274.56;5116216;28;20233;-79
2023/01/29 06:20:39;;;;;;;13.90;9.07;;;;;;;-1.79;100.00;100273.81;5109643;28;20711;-79
2023/01/29 06:23:08;;;;;;;15.97;9.47;;;;;;;-1.76;100.00;100261.72;5114393;27;20203;-79
2023/01/29 06:25:38;;;;;;;12.87;8.80;;;;;;;-1.69;100.00;100270.41;5116143;28;20199;-79
2023/01/29 06:28:07;;;;;;;13.73;9.17;;;;;;;-1.58;100.00;100267.84;5115807;28;20646;-78
2023/01/29 06:30:35;;;;;;;14.23;9.13;;;;;;;-1.69;100.00;100265.22;5115683;28;20318;-79
2023/01/29 06:33:03;;;;;;;16.30;10.77;;;;;;;-1.66;100.00;100272.13;5114751;28;20195;-79
2023/01/29 06:35:32;;;;;;;17.10;10.87;;;;;;;-1.59;100.00;100272.16;5113634;28;20192;-78
2023/01/29 06:38:00;;;;;;;16.27;10.33;;;;;;;-1.60;100.00;100277.34;5109156;28;20302;-79
2023/01/29 06:40:29;;;;;;;16.70;10.83;;;;;;;-1.48;100.00;100274.78;5115375;27;20199;-78
2023/01/29 06:43:00;;;;;;;15.87;10.47;;;;;;;-1.32;100.00;100273.09;5108967;28;20195;-78
2023/01/29 06:45:29;;;;;;;18.70;11.40;;;;;;;-1.41;100.00;100266.16;5115654;27;20190;-78
2023/01/29 06:47:57;;;;;;;15.50;10.40;;;;;;;-1.43;100.00;100269.63;5111467;28;20199;-78
2023/01/29 06:50:28;;;;;;;15.53;10.67;;;;;;;-1.47;100.00;100274.78;5111838;28;20195;-79
2023/01/29 06:52:56;;;;;;;15.90;10.13;;;;;;;-1.70;100.00;100299.84;5113239;28;20199;-79
2023/01/29 06:55:25;;;;;;;14.97;9.43;;;;;;;-1.93;100.00;100307.53;5109527;28;20195;-78
2023/01/29 06:57:53;;;;;;;14.97;9.77;;;;;;;-2.02;100.00;100325.66;5110602;28;20339;-78
2023/01/29 07:00:23;;;;;;;15.70;9.63;;;;;;;-1.96;100.00;100317.88;5115282;28;20203;-79
2023/01/29 07:02:51;;;;;;;15.20;10.73;;;;;;;-1.87;100.00;100304.09;5112814;28;20199;-78
2023/01/29 07:05:21;;;;;;;13.00;9.33;;;;;;;-1.92;100.00;100298.00;5118281;28;20214;-79
2023/01/29 07:07:49;;;;;;;16.00;10.53;;;;;;;-1.81;100.00;100292.00;4973809;28;20203;-79
2023/01/29 07:10:18;;;;;;;17.60;10.47;;;;;;;-1.79;100.00;100287.69;4966346;28;20199;-79
2023/01/29 07:12:46;;;;;;;16.33;10.13;;;;;;;-1.80;100.00;100295.47;4973360;28;20199;-79
2023/01/29 07:15:18;;;;;;;13.60;10.10;;;;;;;-1.79;100.00;100298.06;4968525;28;20242;-78
2023/01/29 07:17:57;;;;;;;16.50;10.73;;;;;;;-1.72;100.00;100296.38;4966317;28;20224;-79
2023/01/29 07:20:27;;;;;;;15.87;10.60;;;;;;;-1.85;100.00;100287.63;4965106;28;20203;-79
2023/01/29 07:22:57;;;;;;;14.40;9.60;;;;;;;-1.78;100.00;100286.81;4941452;28;20196;-79
2023/01/29 07:25:25;;;;;;;16.87;10.07;;;;;;;-1.70;100.00;100296.38;4985629;28;20264;-79
2023/01/29 07:27:54;;;;;;;13.83;9.80;;;;;;;-1.70;100.00;100296.38;5047039;28;20201;-78
2023/01/29 07:30:22;;;;;;;15.83;10.67;;;;;;;-1.71;100.00;100308.50;5049067;28;20231;-78
2023/01/29 07:32:51;;;;;;;13.87;9.90;;;;;;;-1.82;100.00;100321.44;5084349;28;20195;-79
2023/01/29 07:35:21;;;;;;;15.07;10.07;;;;;;;-1.88;100.00;100321.38;5111882;28;20638;-79
2023/01/29 07:37:50;;;;;;;17.10;9.87;;;;;;;-1.85;100.00;100324.00;5114161;27;20215;-79
2023/01/29 07:40:19;;;;;;;15.87;9.70;;;;;;;-2.01;100.00;100324.78;5110452;28;20195;-78
2023/01/29 07:42:47;;;;;;;16.63;10.00;;;;;;;-2.05;100.00;100323.88;5113369;27;20221;-79
2023/01/29 07:45:16;;;;;;;14.03;9.20;;;;;;;-2.07;100.00;100327.34;5109495;28;20191;-78
2023/01/29 07:47:44;;;;;;;15.30;10.10;;;;;;;-2.07;100.00;100330.81;5077825;28;20655;-79
2023/01/29 07:50:13;;;;;;;14.97;10.00;;;;;;;-2.18;100.00;100342.84;5114394;28;20191;-79
2023/01/29 07:52:43;;;;;;;15.00;10.17;;;;;;;-1.99;100.00;100364.59;5112555;28;20229;-79
2023/01/29 07:55:11;;;;;;;13.30;9.70;;;;;;;-1.96;100.00;100361.16;5108897;28;20228;-79
2023/01/29 07:57:39;;;;;;;16.23;9.50;;;;;;;-1.96;100.00;100337.78;5102936;28;20199;-78
2023/01/29 08:00:09;;;;;;;13.07;9.37;;;;;;;-2.17;100.00;100321.22;5111295;28;20661;-79
2023/01/29 08:02:37;;;;;;;13.27;9.43;;;;;;;-2.16;100.00;100306.53;5112619;28;20210;-78
2023/01/29 08:05:06;;;;;;;14.23;9.57;;;;;;;-2.05;100.00;100303.13;5108978;28;20259;-79
2023/01/29 08:07:35;;;;;;;13.50;9.53;;;;;;;-1.89;100.00;100311.00;5076098;28;20183;-79
2023/01/29 08:10:05;;;;;;;15.07;10.37;;;;;;;-1.94;100.00;100304.91;5105330;28;20193;-79
2023/01/29 08:12:41;;;;;;;13.83;9.63;;;;;;;-1.79;100.00;100316.25;5113698;28;20199;-78
2023/01/29 08:15:10;;;;;;;14.77;10.33;;;;;;;-1.66;100.00;100296.38;5109804;28;20183;-79
2023/01/29 08:17:43;;;;;;;14.63;10.10;;;;;;;-1.77;100.00;100308.44;5108721;28;20209;-79
2023/01/29 08:20:25;;;;;;;15.50;10.37;;;;;;;-1.64;100.00;100305.06;5050003;28;20699;-79
2023/01/29 08:22:59;;;;;;;16.07;10.77;;;;;;;-1.54;100.00;100308.56;5045605;28;20197;-79
2023/01/29 08:25:29;;;;;;;14.87;10.60;;;;;;;-1.39;100.00;100300.78;5043095;28;20205;-79
2023/01/29 08:27:59;;;;;;;14.53;9.90;;;;;;;-1.35;100.00;100307.75;5030561;28;20672;-78
2023/01/29 08:30:31;;;;;;;16.27;10.07;;;;;;;-1.37;100.00;100317.25;5046603;28;20201;-79
2023/01/29 08:33:00;;;;;;;15.67;10.93;;;;;;;-1.23;100.00;100332.91;5047122;28;20212;-78
2023/01/29 08:35:29;;;;;;;14.63;10.87;;;;;;;-1.10;100.00;100323.38;5042847;28;20193;-79
2023/01/29 08:37:59;;;;;;;14.70;9.83;;;;;;;-1.37;100.00;100319.84;5048004;28;20279;-78
2023/01/29 08:40:31;;;;;;;16.37;10.80;;;;;;;-1.27;100.00;100313.81;5047413;28;20189;-78
2023/01/29 08:43:00;;;;;;;17.03;12.33;;;;;;;-1.14;100.00;100309.53;5050900;28;20193;-78
2023/01/29 08:45:33;;;;;;;16.17;12.10;;;;;;;-0.99;100.00;100316.47;5050573;28;20203;-79
2023/01/29 08:48:02;;;;;;;19.63;11.53;;;;;;;-0.78;100.00;100324.28;5046972;28;20268;-79
2023/01/29 08:50:31;;;;;;;17.60;10.83;;;;;;;-0.72;100.00;100339.03;5043406;28;20262;-79
2023/01/29 08:53:06;;;;;;;17.00;12.17;;;;;;;-0.56;100.00;100343.41;5047548;28;20215;-79
2023/01/29 08:55:40;;;;;;;16.73;11.63;;;;;;;-0.62;100.00;100333.84;5045415;28;20200;-78
2023/01/29 08:58:11;;;;;;;19.17;13.20;;;;;;;-0.70;100.00;100321.69;5045896;28;20230;-79
2023/01/29 09:00:42;;;;;;;16.83;12.03;;;;;;;-0.78;100.00;100342.50;5045868;28;20193;-79
2023/01/29 09:03:11;;;;;;;15.37;11.37;;;;;;;-0.63;100.00;100352.91;5013641;28;20239;-79
2023/01/29 09:05:41;;;;;;;36.60;25.53;;;;;;;-0.56;100.00;100355.53;5076885;28;20195;-79
2023/01/29 09:08:10;;;;;;;19.97;13.40;;;;;;;-0.81;100.00;100358.09;5110093;28;20206;-79
2023/01/29 09:10:40;;;;;;;20.10;13.80;;;;;;;-0.55;100.00;100354.66;5110870;28;20222;-79
2023/01/29 09:13:10;;;;;;;19.50;12.93;;;;;;;-0.81;100.00;100350.31;5109264;28;20291;-79
2023/01/29 09:15:41;;;;;;;18.20;12.93;;;;;;;-0.71;100.00;100340.78;5108654;28;20198;-79
2023/01/29 09:18:10;;;;;;;19.17;13.23;;;;;;;-0.62;100.00;100345.97;5072194;28;20505;-79
2023/01/29 09:20:38;;;;;;;26.13;18.00;;;;;;;-0.81;100.00;100341.63;5109714;28;20198;-79
2023/01/29 09:23:08;;;;;;;25.80;19.37;;;;;;;-0.63;100.00;100339.06;5110774;28;20198;-79
2023/01/29 09:25:37;;;;;;;21.40;13.63;;;;;;;-0.45;100.00;100348.59;5110655;28;20229;-78
2023/01/29 09:28:07;;;;;;;19.77;13.50;;;;;;;-0.51;100.00;100362.47;5107336;28;20271;-79
2023/01/29 09:30:39;;;;;;;18.60;13.40;;;;;;;-0.43;100.00;100372.88;5109760;28;20202;-79
2023/01/29 09:33:08;;;;;;;21.37;13.10;;;;;;;-0.24;100.00;100353.78;5110603;28;20289;-79
2023/01/29 09:35:36;;;;;;;20.27;12.63;;;;;;;-0.28;100.00;100356.41;5113494;27;20190;-79
2023/01/29 09:38:05;;;;;;;19.23;12.53;;;;;;;-0.15;100.00;100345.97;5112288;28;20195;-79
2023/01/29 09:40:59;;;;;;;18.90;12.63;;;;;;;-0.25;100.00;100335.56;5114102;27;20214;-79
2023/01/29 09:43:43;;;;;;;21.13;13.23;;;;;;;-0.40;100.00;100337.28;5111970;28;20207;-79
2023/01/29 09:46:20;;;;;;;21.07;13.07;;;;;;;-0.35;100.00;100324.28;5115429;28;20198;-79
2023/01/29 09:49:04;;;;;;;21.00;14.10;;;;;;;-0.32;100.00;100325.16;5115245;28;20191;-79
2023/01/29 09:51:38;;;;;;;21.87;12.97;;;;;;;-0.62;100.00;100312.16;5049743;28;20224;-79
2023/01/29 09:54:18;;;;;;;21.53;14.40;;;;;;;-0.79;100.00;100311.28;5051257;28;20204;-79
2023/01/29 09:56:55;;;;;;;19.07;13.53;;;;;;;-0.71;100.00;100314.75;5051892;28;20298;-79
2023/01/29 09:59:32;;;;;;;24.57;14.47;;;;;;;-0.47;100.00;100306.09;5052712;28;20216;-79
2023/01/29 10:02:10;;;;;;;25.73;15.40;;;;;;;-0.30;100.00;100305.19;4974008;28;20254;-79
2023/01/29 10:04:54;;;;;;;22.53;15.07;;;;;;;-0.33;100.00;100296.53;4971450;28;20430;-79
2023/01/29 10:08:02;;;;;;;22.07;15.03;;;;;;;-0.33;100.00;100300.00;4973865;28;20442;-80
2023/01/29 10:10:47;;;;;;;26.40;15.27;;;;;;;-0.68;100.00;100299.16;5037470;28;20231;-79
2023/01/29 10:13:26;;;;;;;20.90;13.67;;;;;;;-0.43;100.00;100298.28;5049674;28;20297;-79
2023/01/29 10:16:18;;;;;;;21.20;14.00;;;;;;;-0.24;100.00;100278.28;5046051;28;20197;-79
2023/01/29 10:19:05;;;;;;;20.63;14.30;;;;;;;0.23;100.00;100278.13;5047467;28;20263;-79
2023/01/29 10:21:48;;;;;;;22.13;14.87;;;;;;;0.33;100.00;100278.97;5050175;28;20193;-79
2023/01/29 10:24:26;;;;;;;22.50;14.83;;;;;;;0.57;100.00;100278.81;5049751;28;20193;-79
2023/01/29 10:26:56;;;;;;;22.53;15.33;;;;;;;0.78;100.00;100270.03;5053535;28;20656;-79
2023/01/29 10:29:27;;;;;;;23.87;16.63;;;;;;;0.87;100.00;100269.13;5042837;28;20201;-79
2023/01/29 10:32:03;;;;;;;24.10;15.33;;;;;;;1.32;100.00;100274.84;5048694;28;20194;-79
2023/01/29 10:34:40;;;;;;;23.73;15.50;;;;;;;1.43;100.00;100252.97;5115863;28;20218;-79
2023/01/29 10:37:17;;;;;;;23.67;16.83;;;;;;;1.47;100.00;100251.22;5048974;28;20193;-79
2023/01/29 10:39:47;;;;;;;28.10;17.93;;;;;;;0.39;100.00;100241.59;5050932;28;20212;-79
2023/01/29 10:42:26;;;;;;;26.97;17.17;;;;;;;0.54;100.00;100244.97;5051508;28;20229;-79
2023/01/29 10:45:19;;;;;;;27.03;16.97;;;;;;;0.61;100.00;100230.16;5048611;28;20200;-81
2023/01/29 10:48:30;;;;;;;30.90;19.83;;;;;;;0.21;100.00;100230.41;5018940;28;20302;-79
2023/01/29 10:51:10;;;;;;;31.60;19.03;;;;;;;0.39;100.00;100229.44;5048826;28;20231;-79
2023/01/29 10:53:49;;;;;;;103.83;48.73;;;;;;;0.40;100.00;100222.50;5049426;28;20193;-79
2023/01/29 10:56:34;;;;;;;49.67;27.17;;;;;;;0.62;100.00;100234.50;5044090;28;20197;-79
2023/01/29 10:59:10;;;;;;;56.57;28.83;;;;;;;0.21;100.00;100229.53;5047522;28;20193;-78
2023/01/29 11:01:41;;;;;;;55.97;28.60;;;;;;;0.22;100.00;100233.88;5049157;28;20292;-79
2023/01/29 11:04:13;;;;;;;96.57;36.50;;;;;;;0.48;100.00;100234.59;5049927;28;20237;-79
2023/01/29 11:06:42;;;;;;;212.63;68.87;;;;;;;0.29;100.00;100217.34;5027812;28;20224;-78
2023/01/29 11:09:20;;;;;;;65.93;30.60;;;;;;;-0.09;100.00;100209.69;5098490;28;20194;-79
2023/01/29 11:11:53;;;;;;;88.17;41.73;;;;;;;0.03;100.00;100201.81;5113656;28;20193;-79
2023/01/29 11:14:25;;;;;;;39.47;23.80;;;;;;;0.28;100.00;100203.41;5112698;28;20310;-79
2023/01/29 11:16:53;;;;;;;33.10;19.87;;;;;;;0.30;100.00;100190.41;5105187;28;20199;-79
2023/01/29 11:19:37;;;;;;;33.33;20.73;;;;;;;0.07;100.00;100185.31;5110291;28;20209;-79
2023/01/29 11:22:14;;;;;;;36.67;20.80;;;;;;;0.09;100.00;100200.91;5052015;28;20321;-79
2023/01/29 11:24:43;;;;;;;32.30;19.47;;;;;;;0.12;100.00;100188.75;5004442;28;20197;-79
2023/01/29 11:27:22;;;;;;;34.77;20.20;;;;;;;0.10;100.00;100189.66;5050794;28;20204;-79
2023/01/29 11:29:53;;;;;;;31.57;18.57;;;;;;;0.45;100.00;100179.00;5045879;28;20601;-79
2023/01/29 11:32:34;;;;;;;32.43;20.13;;;;;;;0.39;100.00;100173.84;4978730;28;20233;-79
2023/01/29 11:35:25;;;;;;;38.60;23.30;;;;;;;0.40;100.00;100167.75;4972624;28;20199;-79
2023/01/29 11:38:07;;;;;;;33.57;21.40;;;;;;;0.57;100.00;100173.69;4965549;28;20247;-79
2023/01/29 11:40:40;;;;;;;38.63;23.10;;;;;;;-0.01;100.00;100163.63;5018380;28;20221;-79
2023/01/29 11:43:29;;;;;;;34.97;22.20;;;;;;;0.02;100.00;100150.63;5051691;28;20205;-79
2023/01/29 11:46:00;;;;;;;35.50;23.40;;;;;;;0.13;100.00;100155.75;5047783;28;20193;-79
2023/01/29 11:48:35;;;;;;;36.03;21.93;;;;;;;0.12;100.00;100148.84;5046563;28;20235;-79
2023/01/29 11:51:07;;;;;;;31.47;19.00;;;;;;;0.31;100.00;100141.78;5043128;28;20274;-79
2023/01/29 11:53:39;;;;;;;34.27;25.87;;;;;;;-0.16;100.00;100137.69;5076663;28;20257;-79
2023/01/29 11:56:21;;;;;;;34.60;19.50;;;;;;;0.19;100.00;100133.16;5081317;28;20214;-79